createdAt,value
2023-02-26T00:00:15.112Z,55.97
2023-02-26T00:02:42.949Z,55.76
2023-02-26T00:05:10.134Z,56.28
2023-02-26T00:07:37.151Z,56.16
2023-02-26T00:10:08.804Z,55.58
2023-02-26T00:12:36.196Z,55.95
2023-02-26T00:15:03.842Z,56.31
2023-02-26T00:17:30.327Z,56.66
2023-02-26T00:19:57.501Z,56.77
2023-02-26T00:22:24.419Z,57.11
2023-02-26T00:27:26.270Z,56.10
2023-02-26T00:30:05.591Z,55.55
2023-02-26T00:32:47.796Z,55.35
2023-02-26T00:35:16.106Z,55.89
2023-02-26T00:38:30.501Z,55.75
2023-02-26T00:41:32.307Z,54.57
2023-02-26T00:44:14.565Z,55.37
2023-02-26T00:47:00.691Z,55.04
2023-02-26T00:50:22.972Z,55.06
2023-02-26T00:53:34.600Z,55.06
2023-02-26T00:56:01.140Z,55.15
2023-02-26T00:58:29.982Z,54.24
2023-02-26T01:00:56.599Z,54.53
2023-02-26T01:03:23.451Z,53.54
2023-02-26T01:05:50.283Z,53.89
2023-02-26T01:08:52.299Z,54.03
2023-02-26T01:11:19.152Z,54.07
2023-02-26T01:13:46.009Z,53.89
2023-02-26T01:16:20.761Z,53.34
2023-02-26T01:20:23.316Z,53.54
2023-02-26T01:23:03.344Z,53.87
2023-02-26T01:25:47.680Z,53.96
2023-02-26T01:28:14.746Z,53.55
2023-02-26T01:30:41.745Z,53.13
2023-02-26T01:33:25.672Z,53.56
2023-02-26T01:36:03.232Z,53.45
2023-02-26T01:38:49.316Z,55.11
2023-02-26T01:41:23.358Z,54.09
2023-02-26T01:44:07.962Z,54.08
2023-02-26T01:47:11.323Z,53.66
2023-02-26T01:50:06.119Z,53.06
2023-02-26T01:52:47.721Z,52.59
2023-02-26T01:55:27.370Z,53.05
2023-02-26T01:57:56.245Z,52.99
2023-02-26T02:00:23.204Z,52.65
2023-02-26T02:02:50.564Z,53.51
2023-02-26T02:05:24.853Z,52.96
2023-02-26T02:10:27.387Z,53.53
2023-02-26T02:13:19.292Z,53.22
2023-02-26T02:16:20.782Z,52.70
2023-02-26T02:19:29.127Z,52.72
2023-02-26T02:22:39.299Z,52.70
2023-02-26T02:25:25.619Z,52.31
2023-02-26T02:27:52.056Z,52.58
2023-02-26T02:30:49.204Z,52.31
2023-02-26T02:33:23.629Z,53.18
2023-02-26T02:35:56.460Z,53.16
2023-02-26T02:38:42.287Z,53.17
2023-02-26T02:41:30.271Z,53.04
2023-02-26T02:44:02.127Z,53.13
2023-02-26T02:46:32.901Z,53.29
2023-02-26T02:49:52.492Z,53.33
2023-02-26T02:52:50.555Z,53.32
2023-02-26T02:55:25.175Z,54.23
2023-02-26T02:58:21.040Z,54.05
2023-02-26T03:00:53.311Z,54.06
2023-02-26T03:03:35.656Z,54.14
2023-02-26T03:06:03.299Z,54.10
2023-02-26T03:08:35.187Z,53.76
2023-02-26T03:16:35.091Z,55.43
2023-02-26T03:25:06.477Z,55.31
2023-02-26T03:27:57.595Z,55.89
2023-02-26T03:30:35.171Z,56.50
2023-02-26T03:33:06.118Z,56.88
2023-02-26T03:35:44.830Z,57.38
2023-02-26T03:38:19.905Z,57.32
2023-02-26T03:40:53.557Z,57.78
2023-02-26T03:43:44.718Z,56.74
2023-02-26T03:46:15.788Z,56.05
2023-02-26T03:49:12.814Z,55.52
2023-02-26T03:51:59.808Z,55.61
2023-02-26T03:54:34.200Z,55.57
2023-02-26T03:57:00.755Z,55.76
2023-02-26T03:59:27.447Z,56.70
2023-02-26T04:02:02.456Z,56.45
2023-02-26T04:04:37.966Z,57.17
2023-02-26T04:07:11.375Z,56.55
2023-02-26T04:09:40.299Z,55.57
2023-02-26T04:12:07.345Z,55.63
2023-02-26T04:14:33.919Z,55.46
2023-02-26T04:17:00.491Z,56.94
2023-02-26T04:19:28.045Z,57.38
2023-02-26T04:21:56.766Z,56.22
2023-02-26T04:24:23.559Z,55.32
2023-02-26T04:26:50.178Z,55.19
2023-02-26T04:29:16.784Z,55.73
2023-02-26T04:31:43.450Z,56.16
2023-02-26T04:34:10.230Z,55.60
2023-02-26T04:36:36.811Z,56.11
2023-02-26T04:39:03.566Z,56.55
2023-02-26T04:41:30.130Z,56.66
2023-02-26T04:43:56.735Z,56.90
2023-02-26T04:46:23.564Z,58.03
2023-02-26T04:48:50.726Z,57.86
2023-02-26T04:51:20.718Z,56.79
2023-02-26T04:53:47.439Z,57.00
2023-02-26T04:56:14.392Z,56.72
2023-02-26T04:58:40.956Z,56.67
2023-02-26T05:01:07.687Z,56.81
2023-02-26T05:03:34.508Z,56.75
2023-02-26T05:06:01.890Z,56.00
2023-02-26T05:08:28.430Z,55.76
2023-02-26T05:10:55.213Z,56.16
2023-02-26T05:13:22.048Z,55.80
2023-02-26T05:15:48.718Z,56.25
2023-02-26T05:18:15.296Z,56.62
2023-02-26T05:20:41.933Z,57.93
2023-02-26T05:23:17.437Z,57.47
2023-02-26T05:25:44.089Z,56.65
2023-02-26T05:28:10.634Z,56.94
2023-02-26T05:30:37.203Z,57.47
2023-02-26T05:33:28.241Z,56.94
2023-02-26T05:36:19.028Z,57.20
2023-02-26T05:38:45.617Z,58.34
2023-02-26T05:41:12.154Z,59.05
2023-02-26T05:43:39.573Z,59.30
2023-02-26T05:46:06.337Z,58.72
2023-02-26T05:48:33.200Z,59.33
2023-02-26T05:51:18.708Z,59.40
2023-02-26T05:53:46.004Z,59.22
2023-02-26T05:56:12.577Z,58.77
2023-02-26T05:58:39.202Z,59.30
2023-02-26T06:01:05.958Z,60.09
2023-02-26T06:04:07.518Z,59.86
2023-02-26T06:06:58.324Z,60.45
2023-02-26T06:09:49.798Z,59.24
2023-02-26T06:12:16.432Z,58.71
2023-02-26T06:14:43.025Z,59.37
2023-02-26T06:17:09.666Z,59.04
2023-02-26T06:19:36.276Z,59.47
2023-02-26T06:22:02.929Z,59.63
2023-02-26T06:24:29.560Z,58.70
2023-02-26T06:26:56.147Z,58.82
2023-02-26T06:29:23.704Z,58.18
2023-02-26T06:31:50.450Z,59.16
2023-02-26T06:34:17.311Z,59.88
2023-02-26T06:37:15.414Z,59.44
2023-02-26T06:40:10.860Z,59.69
2023-02-26T06:42:37.995Z,60.35
2023-02-26T06:45:05.518Z,60.44
2023-02-26T06:47:32.118Z,60.40
2023-02-26T06:49:58.691Z,60.17
2023-02-26T06:52:25.516Z,60.14
2023-02-26T06:54:52.077Z,60.18
2023-02-26T06:57:18.654Z,60.78
2023-02-26T06:59:45.212Z,60.14
2023-02-26T07:02:20.495Z,60.63
2023-02-26T07:04:47.369Z,60.62
2023-02-26T07:07:14.607Z,59.93
2023-02-26T07:09:41.808Z,59.64
2023-02-26T07:12:08.719Z,60.06
2023-02-26T07:14:35.549Z,59.83
2023-02-26T07:17:02.895Z,59.83
2023-02-26T07:19:30.035Z,59.69
2023-02-26T07:21:56.566Z,59.33
2023-02-26T07:24:23.505Z,58.86
2023-02-26T07:26:50.069Z,58.78
2023-02-26T07:29:16.709Z,59.05
2023-02-26T07:31:43.668Z,58.95
2023-02-26T07:34:10.331Z,58.10
2023-02-26T07:36:36.973Z,58.00
2023-02-26T07:39:03.880Z,59.19
2023-02-26T07:41:30.439Z,57.65
2023-02-26T07:43:57.166Z,56.93
2023-02-26T07:46:23.939Z,56.88
2023-02-26T07:48:50.903Z,56.65
2023-02-26T07:51:17.452Z,56.33
2023-02-26T07:53:43.986Z,55.48
2023-02-26T07:56:10.562Z,54.85
2023-02-26T07:58:37.419Z,55.47
2023-02-26T08:01:04.140Z,55.44
2023-02-26T08:03:32.204Z,55.33
2023-02-26T08:06:03.224Z,54.46
2023-02-26T08:08:29.808Z,53.78
2023-02-26T08:10:56.485Z,52.79
2023-02-26T08:13:23.189Z,52.85
2023-02-26T08:15:49.795Z,53.40
2023-02-26T08:18:16.484Z,53.26
2023-02-26T08:20:43.141Z,52.53
2023-02-26T08:23:09.943Z,52.28
2023-02-26T08:25:36.529Z,52.23
2023-02-26T08:28:03.672Z,52.11
2023-02-26T08:30:30.603Z,51.68
2023-02-26T08:32:57.358Z,51.67
2023-02-26T08:35:24.866Z,51.74
2023-02-26T08:37:52.783Z,51.53
2023-02-26T08:40:19.368Z,50.19
2023-02-26T08:42:46.386Z,48.92
2023-02-26T08:45:12.986Z,49.25
2023-02-26T08:47:55.691Z,48.98
2023-02-26T08:50:24.505Z,48.20
2023-02-26T08:52:51.148Z,47.96
2023-02-26T08:55:17.833Z,47.17
2023-02-26T08:57:44.394Z,47.21
2023-02-26T09:00:11.854Z,47.01
2023-02-26T09:02:39.320Z,46.44
2023-02-26T09:05:06.257Z,45.96
2023-02-26T09:07:32.801Z,45.59
2023-02-26T09:09:59.415Z,45.67
2023-02-26T09:12:26.076Z,45.41
2023-02-26T09:14:52.631Z,44.61
2023-02-26T09:17:19.237Z,44.31
2023-02-26T09:19:45.750Z,43.88
2023-02-26T09:22:12.285Z,43.81
2023-02-26T09:24:39.485Z,45.69
2023-02-26T09:27:06.123Z,45.42
2023-02-26T09:29:32.686Z,45.63
2023-02-26T09:31:59.401Z,44.76
2023-02-26T09:34:26.068Z,44.72
2023-02-26T09:36:52.609Z,45.21
2023-02-26T09:39:19.225Z,46.34
2023-02-26T09:41:53.201Z,46.43
2023-02-26T09:44:27.418Z,45.47
2023-02-26T09:47:05.879Z,45.62
2023-02-26T09:50:10.933Z,45.44
2023-02-26T09:52:47.030Z,45.35
2023-02-26T09:55:24.908Z,45.96
2023-02-26T09:57:54.440Z,46.26
2023-02-26T10:00:34.450Z,45.48
2023-02-26T10:03:27.324Z,45.57
2023-02-26T10:06:24.730Z,45.03
2023-02-26T10:09:08.183Z,45.97
2023-02-26T10:12:05.262Z,46.35
2023-02-26T10:15:14.265Z,45.69
2023-02-26T10:17:59.119Z,46.16
2023-02-26T10:20:53.049Z,46.07
2023-02-26T10:23:43.653Z,47.74
2023-02-26T10:26:25.043Z,47.46
2023-02-26T10:29:02.174Z,47.31
2023-02-26T10:31:57.923Z,46.49
2023-02-26T10:34:43.259Z,47.41
2023-02-26T10:37:20.271Z,46.20
2023-02-26T10:39:52.691Z,45.30
2023-02-26T10:42:38.690Z,44.67
2023-02-26T10:45:37.707Z,44.67
2023-02-26T10:48:16.426Z,44.12
2023-02-26T10:50:52.167Z,44.50
2023-02-26T10:53:21.420Z,43.33
2023-02-26T10:56:20.277Z,43.31
2023-02-26T10:58:46.829Z,43.48
2023-02-26T11:01:20.053Z,43.03
2023-02-26T11:03:50.087Z,43.82
2023-02-26T11:06:24.640Z,43.92
2023-02-26T11:08:55.645Z,42.99
2023-02-26T11:11:46.505Z,45.32
2023-02-26T11:14:14.605Z,44.62
2023-02-26T11:16:51.370Z,44.96
2023-02-26T11:19:24.252Z,44.52
2023-02-26T11:21:51.526Z,43.20
2023-02-26T11:24:37.848Z,44.42
2023-02-26T11:27:08.613Z,45.22
2023-02-26T11:29:40.975Z,45.43
2023-02-26T11:32:17.521Z,46.95
2023-02-26T11:34:48.896Z,46.33
2023-02-26T11:37:21.328Z,44.82
2023-02-26T11:39:51.094Z,44.16
2023-02-26T11:42:18.451Z,44.44
2023-02-26T11:44:47.672Z,44.14
2023-02-26T11:47:18.841Z,45.29
2023-02-26T11:49:51.648Z,44.59
2023-02-26T11:52:21.078Z,45.67
2023-02-26T11:54:50.309Z,45.09
2023-02-26T11:57:24.243Z,44.10
2023-02-26T11:59:54.161Z,45.18
2023-02-26T12:02:24.762Z,45.70
2023-02-26T12:04:54.175Z,45.77
2023-02-26T12:07:21.994Z,46.08
2023-02-26T12:09:51.598Z,46.19
2023-02-26T12:12:24.585Z,44.78
2023-02-26T12:15:09.173Z,44.29
2023-02-26T12:18:15.850Z,45.02
2023-02-26T12:20:56.912Z,44.11
2023-02-26T12:23:44.750Z,44.19
2023-02-26T12:26:35.344Z,43.53
2023-02-26T12:29:20.458Z,43.68
2023-02-26T12:32:14.595Z,45.81
2023-02-26T12:34:41.102Z,45.52
2023-02-26T12:37:20.854Z,45.96
2023-02-26T12:39:56.404Z,44.91
2023-02-26T12:42:38.173Z,45.52
2023-02-26T12:45:22.147Z,46.10
2023-02-26T12:47:48.690Z,45.62
2023-02-26T12:50:27.254Z,45.51
2023-02-26T12:53:05.471Z,44.37
2023-02-26T12:56:09.856Z,44.81
2023-02-26T12:58:42.515Z,45.23
2023-02-26T13:01:15.203Z,44.64
2023-02-26T13:03:57.431Z,45.03
2023-02-26T13:06:33.350Z,45.12
2023-02-26T13:09:08.333Z,44.50
2023-02-26T13:11:40.862Z,44.92
2023-02-26T13:14:42.094Z,44.52
2023-02-26T13:17:08.624Z,43.82
2023-02-26T13:19:48.365Z,43.63
2023-02-26T13:22:45.985Z,43.66
2023-02-26T13:25:36.885Z,43.68
2023-02-26T13:28:30.969Z,44.33
2023-02-26T13:30:59.934Z,44.37
2023-02-26T13:33:34.654Z,45.53
2023-02-26T13:36:02.722Z,44.77
2023-02-26T13:38:49.409Z,44.67
2023-02-26T13:41:36.199Z,44.75
2023-02-26T13:44:28.537Z,44.93
2023-02-26T13:47:46.696Z,45.08
2023-02-26T13:50:40.710Z,46.96
2023-02-26T13:53:29.108Z,48.20
2023-02-26T13:56:07.494Z,51.43
2023-02-26T13:58:39.155Z,49.95
2023-02-26T14:01:29.841Z,50.43
2023-02-26T14:04:28.340Z,49.75
2023-02-26T14:06:58.991Z,50.68
2023-02-26T14:09:28.484Z,51.49
2023-02-26T14:11:54.995Z,50.55
2023-02-26T14:14:21.541Z,50.48
2023-02-26T14:17:15.724Z,50.94
2023-02-26T14:19:52.377Z,52.15
2023-02-26T14:22:23.798Z,51.91
2023-02-26T14:24:57.023Z,52.47
2023-02-26T14:27:36.745Z,52.34
2023-02-26T14:30:09.365Z,52.37
2023-02-26T14:32:47.962Z,51.91
2023-02-26T14:35:25.331Z,52.34
2023-02-26T14:38:15.137Z,51.59
2023-02-26T14:43:31.609Z,52.61
2023-02-26T14:45:58.291Z,52.39
2023-02-26T14:48:32.694Z,53.71
2023-02-26T14:55:20.901Z,51.48
2023-02-26T14:58:36.935Z,50.77
2023-02-26T15:01:21.610Z,51.38
2023-02-26T15:04:31.576Z,50.79
2023-02-26T15:07:23.012Z,50.05
2023-02-26T15:09:52.215Z,49.06
2023-02-26T15:12:34.901Z,48.73
2023-02-26T15:15:20.303Z,48.63
2023-02-26T15:18:40.108Z,49.13
2023-02-26T15:21:10.773Z,48.90
2023-02-26T15:23:39.811Z,51.14
2023-02-26T15:26:07.986Z,49.81
2023-02-26T15:28:40.403Z,51.33
2023-02-26T15:31:11.758Z,51.46
2023-02-26T15:33:40.228Z,51.01
2023-02-26T15:36:16.003Z,50.51
2023-02-26T15:38:47.342Z,51.50
2023-02-26T15:41:15.725Z,50.93
2023-02-26T15:43:53.169Z,50.12
2023-02-26T15:46:26.400Z,49.53
2023-02-26T15:48:59.586Z,51.17
2023-02-26T15:51:26.485Z,50.06
2023-02-26T15:53:55.476Z,49.57
2023-02-26T15:56:26.253Z,49.64
2023-02-26T15:59:03.193Z,48.85
2023-02-26T16:01:31.312Z,47.52
2023-02-26T16:04:01.390Z,48.03
2023-02-26T16:06:31.038Z,47.12
2023-02-26T16:08:58.202Z,46.38
2023-02-26T16:11:27.769Z,47.55
2023-02-26T16:13:54.671Z,48.33
2023-02-26T16:16:26.762Z,48.79
2023-02-26T16:18:56.006Z,47.88
2023-02-26T16:21:36.567Z,47.25
2023-02-26T16:24:07.174Z,47.97
2023-02-26T16:26:38.620Z,48.27
2023-02-26T16:29:15.764Z,48.57
2023-02-26T16:31:44.350Z,48.97
2023-02-26T16:34:35.544Z,50.08
2023-02-26T16:37:43.697Z,49.72
2023-02-26T16:40:28.502Z,49.91
2023-02-26T16:43:02.616Z,49.39
2023-02-26T16:45:49.813Z,49.10
2023-02-26T16:48:23.121Z,48.43
2023-02-26T16:51:16.012Z,48.41
2023-02-26T16:53:50.937Z,47.53
2023-02-26T16:56:20.549Z,47.46
2023-02-26T16:58:53.765Z,47.18
2023-02-26T17:01:22.824Z,46.97
2023-02-26T17:04:01.350Z,47.57
2023-02-26T17:06:31.266Z,47.14
2023-02-26T17:09:00.808Z,46.99
2023-02-26T17:11:33.355Z,46.88
2023-02-26T17:14:21.012Z,46.47
2023-02-26T17:16:48.807Z,46.13
2023-02-26T17:19:16.135Z,46.35
2023-02-26T17:21:49.185Z,46.15
2023-02-26T17:24:28.126Z,46.28
2023-02-26T17:26:57.162Z,46.37
2023-02-26T17:29:37.272Z,46.64
2023-02-26T17:32:12.894Z,46.72
2023-02-26T17:34:39.510Z,47.04
2023-02-26T17:37:12.245Z,46.44
2023-02-26T17:39:39.573Z,47.08
2023-02-26T17:42:14.222Z,46.72
2023-02-26T17:44:41.249Z,46.70
2023-02-26T17:47:15.272Z,48.07
2023-02-26T17:49:41.989Z,49.31
2023-02-26T17:52:08.696Z,49.33
2023-02-26T17:54:35.288Z,48.72
2023-02-26T17:57:02.507Z,49.01
2023-02-26T17:59:29.072Z,48.47
2023-02-26T18:01:55.700Z,47.53
2023-02-26T18:04:22.756Z,47.27
2023-02-26T18:06:49.630Z,46.79
2023-02-26T18:09:16.689Z,47.19
2023-02-26T18:11:43.388Z,47.87
2023-02-26T18:14:11.096Z,47.95
2023-02-26T18:16:40.783Z,48.20
2023-02-26T18:19:08.249Z,48.34
2023-02-26T18:21:35.214Z,48.37
2023-02-26T18:24:01.927Z,48.47
2023-02-26T18:26:32.624Z,48.46
2023-02-26T18:28:59.196Z,48.76
2023-02-26T18:31:34.673Z,49.01
2023-02-26T18:34:03.373Z,49.07
2023-02-26T18:36:35.529Z,48.29
2023-02-26T18:39:02.541Z,48.30
2023-02-26T18:41:30.986Z,48.15
2023-02-26T18:43:57.561Z,47.92
2023-02-26T18:46:25.226Z,48.69
2023-02-26T18:48:51.902Z,49.34
2023-02-26T18:51:18.579Z,48.97
2023-02-26T18:53:45.421Z,49.27
2023-02-26T18:56:12.007Z,48.71
2023-02-26T18:58:40.419Z,48.29
2023-02-26T19:01:07.330Z,48.14
2023-02-26T19:03:33.955Z,48.24
2023-02-26T19:06:03.174Z,48.38
2023-02-26T19:08:30.431Z,48.18
2023-02-26T19:10:58.165Z,48.26
2023-02-26T19:13:25.210Z,49.16
2023-02-26T19:15:51.923Z,48.64
2023-02-26T19:18:19.038Z,49.74
2023-02-26T19:20:45.899Z,50.49
2023-02-26T19:23:12.612Z,51.07
2023-02-26T19:25:41.337Z,51.22
2023-02-26T19:28:09.079Z,51.11
2023-02-26T19:30:36.256Z,52.66
2023-02-26T19:33:02.957Z,52.99
2023-02-26T19:35:30.658Z,52.39
2023-02-26T19:37:59.708Z,52.27
2023-02-26T19:40:28.165Z,51.91
2023-02-26T19:42:54.744Z,50.31
2023-02-26T19:45:24.038Z,50.86
2023-02-26T19:47:50.636Z,50.58
2023-02-26T19:50:19.277Z,48.82
2023-02-26T19:52:45.935Z,48.84
2023-02-26T19:55:14.508Z,49.70
2023-02-26T19:57:41.184Z,49.64
2023-02-26T20:00:08.581Z,48.32
2023-02-26T20:02:35.199Z,47.64
2023-02-26T20:05:03.713Z,47.79
2023-02-26T20:07:30.331Z,47.59
2023-02-26T20:09:57.382Z,46.66
2023-02-26T20:12:23.906Z,47.86
2023-02-26T20:14:50.530Z,47.30
2023-02-26T20:17:17.082Z,47.82
2023-02-26T20:19:44.730Z,47.99
2023-02-26T20:22:11.737Z,48.59
2023-02-26T20:24:38.476Z,48.57
2023-02-26T20:27:07.089Z,47.75
2023-02-26T20:29:33.698Z,47.38
2023-02-26T20:32:00.463Z,47.38
2023-02-26T20:34:27.289Z,47.53
2023-02-26T20:36:55.744Z,47.78
2023-02-26T20:39:24.541Z,48.12
2023-02-26T20:41:51.150Z,47.98
2023-02-26T20:44:18.005Z,47.88
2023-02-26T20:46:44.667Z,47.66
2023-02-26T20:49:11.788Z,48.89
2023-02-26T20:51:40.878Z,48.25
2023-02-26T20:54:08.806Z,47.77
2023-02-26T20:56:35.500Z,47.37
2023-02-26T20:59:02.208Z,47.85
2023-02-26T21:01:35.426Z,48.58
2023-02-26T21:04:07.445Z,47.73
2023-02-26T21:06:35.037Z,47.30
2023-02-26T21:09:02.135Z,47.11
2023-02-26T21:11:34.550Z,46.76
2023-02-26T21:14:03.626Z,47.02
2023-02-26T21:16:30.590Z,47.34
2023-02-26T21:19:00.228Z,46.89
2023-02-26T21:21:26.931Z,46.99
2023-02-26T21:23:53.741Z,46.79
2023-02-26T21:26:21.273Z,47.41
2023-02-26T21:28:48.642Z,47.18
2023-02-26T21:31:20.336Z,47.67
2023-02-26T21:33:47.007Z,47.69
2023-02-26T21:36:14.481Z,47.49
2023-02-26T21:38:42.156Z,48.12
2023-02-26T21:41:08.900Z,48.36
2023-02-26T21:43:35.559Z,48.41
2023-02-26T21:46:02.243Z,49.02
2023-02-26T21:48:28.898Z,49.19
2023-02-26T21:50:56.630Z,49.34
2023-02-26T21:53:23.957Z,49.68
2023-02-26T21:55:50.579Z,50.37
2023-02-26T21:58:17.158Z,50.53
2023-02-26T22:00:44.327Z,50.20
2023-02-26T22:03:11.439Z,48.73
2023-02-26T22:05:38.204Z,47.54
2023-02-26T22:08:05.269Z,45.38
2023-02-26T22:10:31.942Z,45.22
2023-02-26T22:12:58.598Z,45.74
2023-02-26T22:15:25.221Z,45.51
2023-02-26T22:17:51.824Z,46.56
2023-02-26T22:20:18.605Z,46.29
2023-02-26T22:22:45.204Z,45.60
2023-02-26T22:33:39.021Z,44.02
2023-02-26T22:47:02.686Z,46.03
2023-02-26T22:49:29.335Z,45.94
2023-02-26T22:51:56.070Z,46.05
2023-02-26T22:54:22.639Z,46.52
2023-02-26T22:56:49.252Z,46.60
2023-02-26T22:59:16.360Z,46.55
2023-02-26T23:01:43.339Z,46.42
2023-02-26T23:04:10.763Z,45.89
2023-02-26T23:06:37.541Z,45.37
2023-02-26T23:09:05.884Z,45.14
2023-02-26T23:11:32.757Z,44.69
2023-02-26T23:13:59.358Z,44.20
2023-02-26T23:16:46.160Z,44.26
2023-02-26T23:19:57.586Z,44.62
2023-02-26T23:22:24.334Z,44.87
2023-02-26T23:24:50.948Z,46.31
2023-02-26T23:27:17.945Z,46.16
2023-02-26T23:29:45.798Z,46.13
2023-02-26T23:32:13.123Z,46.10
2023-02-26T23:35:07.941Z,46.36
2023-02-26T23:37:34.609Z,45.84
2023-02-26T23:40:01.354Z,45.72
2023-02-26T23:42:27.944Z,45.97
2023-02-26T23:45:48.150Z,45.99
2023-02-26T23:48:52.652Z,45.56
2023-02-26T23:51:19.235Z,45.65
2023-02-26T23:53:45.847Z,45.48
2023-02-26T23:56:12.814Z,47.62
2023-02-26T23:58:39.367Z,47.30
